sensor_id;sensor_type;location;lat;lon;timestamp;temperature;humidity
30308;DHT22;17114;52.314;8.910;2022-09-02T00:01:38;13.00;99.90
30308;DHT22;17114;52.314;8.910;2022-09-02T00:04:12;13.10;99.90
30308;DHT22;17114;52.314;8.910;2022-09-02T00:06:41;13.10;99.90
30308;DHT22;17114;52.314;8.910;2022-09-02T00:09:11;13.10;99.90
30308;DHT22;17114;52.314;8.910;2022-09-02T00:11:40;13.10;99.90
30308;DHT22;17114;52.314;8.910;2022-09-02T00:14:11;13.10;99.90
30308;DHT22;17114;52.314;8.910;2022-09-02T00:16:38;13.20;99.90
30308;DHT22;17114;52.314;8.910;2022-09-02T00:19:07;13.20;99.90
30308;DHT22;17114;52.314;8.910;2022-09-02T00:21:34;13.20;99.90
30308;DHT22;17114;52.314;8.910;2022-09-02T00:24:03;13.20;99.90
30308;DHT22;17114;52.314;8.910;2022-09-02T00:26:31;13.20;99.90
30308;DHT22;17114;52.314;8.910;2022-09-02T00:28:58;13.10;99.90
30308;DHT22;17114;52.314;8.910;2022-09-02T00:31:26;13.20;99.90
30308;DHT22;17114;52.314;8.910;2022-09-02T00:33:55;13.20;99.90
30308;DHT22;17114;52.314;8.910;2022-09-02T00:36:22;13.20;99.90
30308;DHT22;17114;52.314;8.910;2022-09-02T00:38:50;13.20;99.90
30308;DHT22;17114;52.314;8.910;2022-09-02T00:41:19;13.20;99.90
30308;DHT22;17114;52.314;8.910;2022-09-02T00:44:03;13.10;99.90
30308;DHT22;17114;52.314;8.910;2022-09-02T00:46:31;13.20;99.90
30308;DHT22;17114;52.314;8.910;2022-09-02T00:49:29;13.10;99.90
30308;DHT22;17114;52.314;8.910;2022-09-02T00:52:04;13.10;99.90
30308;DHT22;17114;52.314;8.910;2022-09-02T00:54:38;13.10;99.90
30308;DHT22;17114;52.314;8.910;2022-09-02T00:57:11;13.10;99.90
30308;DHT22;17114;52.314;8.910;2022-09-02T00:59:56;13.00;99.90
30308;DHT22;17114;52.314;8.910;2022-09-02T01:02:24;13.00;99.90
30308;DHT22;17114;52.314;8.910;2022-09-02T01:04:54;13.00;99.90
30308;DHT22;17114;52.314;8.910;2022-09-02T01:07:24;13.00;99.90
30308;DHT22;17114;52.314;8.910;2022-09-02T01:09:53;13.00;99.90
30308;DHT22;17114;52.314;8.910;2022-09-02T01:12:23;12.90;99.90
30308;DHT22;17114;52.314;8.910;2022-09-02T01:14:53;12.90;99.90
30308;DHT22;17114;52.314;8.910;2022-09-02T01:17:20;12.80;99.90
30308;DHT22;17114;52.314;8.910;2022-09-02T01:19:51;12.80;99.90
30308;DHT22;17114;52.314;8.910;2022-09-02T01:22:24;12.80;99.90
30308;DHT22;17114;52.314;8.910;2022-09-02T01:24:54;12.90;99.90
30308;DHT22;17114;52.314;8.910;2022-09-02T01:27:22;12.80;99.90
30308;DHT22;17114;52.314;8.910;2022-09-02T01:29:55;12.80;99.90
30308;DHT22;17114;52.314;8.910;2022-09-02T01:32:24;12.80;99.90
30308;DHT22;17114;52.314;8.910;2022-09-02T01:34:51;12.70;99.90
30308;DHT22;17114;52.314;8.910;2022-09-02T01:37:20;12.70;99.90
30308;DHT22;17114;52.314;8.910;2022-09-02T01:39:47;12.70;99.90
30308;DHT22;17114;52.314;8.910;2022-09-02T01:42:15;12.60;99.90
30308;DHT22;17114;52.314;8.910;2022-09-02T01:44:42;12.60;99.90
30308;DHT22;17114;52.314;8.910;2022-09-02T01:47:21;12.60;99.90
30308;DHT22;17114;52.314;8.910;2022-09-02T01:49:49;12.50;99.90
30308;DHT22;17114;52.314;8.910;2022-09-02T01:52:18;12.50;99.90
30308;DHT22;17114;52.314;8.910;2022-09-02T01:54:45;12.50;99.90
30308;DHT22;17114;52.314;8.910;2022-09-02T01:57:12;12.50;99.90
30308;DHT22;17114;52.314;8.910;2022-09-02T01:59:40;12.50;99.90
30308;DHT22;17114;52.314;8.910;2022-09-02T02:02:09;12.40;99.90
30308;DHT22;17114;52.314;8.910;2022-09-02T02:04:37;12.40;99.90
30308;DHT22;17114;52.314;8.910;2022-09-02T02:07:05;12.40;99.90
30308;DHT22;17114;52.314;8.910;2022-09-02T02:09:32;12.40;99.90
30308;DHT22;17114;52.314;8.910;2022-09-02T02:11:59;12.30;99.90
30308;DHT22;17114;52.314;8.910;2022-09-02T02:14:26;12.30;99.90
30308;DHT22;17114;52.314;8.910;2022-09-02T02:16:53;12.30;99.90
30308;DHT22;17114;52.314;8.910;2022-09-02T02:19:20;12.30;99.90
30308;DHT22;17114;52.314;8.910;2022-09-02T02:21:47;12.30;99.90
30308;DHT22;17114;52.314;8.910;2022-09-02T02:24:14;12.30;99.90
30308;DHT22;17114;52.314;8.910;2022-09-02T02:26:40;12.20;99.90
30308;DHT22;17114;52.314;8.910;2022-09-02T02:29:08;12.20;99.90
30308;DHT22;17114;52.314;8.910;2022-09-02T02:31:35;12.20;99.90
30308;DHT22;17114;52.314;8.910;2022-09-02T02:34:03;12.20;99.90
30308;DHT22;17114;52.314;8.910;2022-09-02T02:36:30;12.10;99.90
30308;DHT22;17114;52.314;8.910;2022-09-02T02:39:00;12.10;99.90
30308;DHT22;17114;52.314;8.910;2022-09-02T02:41:29;12.00;99.90
30308;DHT22;17114;52.314;8.910;2022-09-02T02:43:56;12.00;99.90
30308;DHT22;17114;52.314;8.910;2022-09-02T02:46:23;11.90;99.90
30308;DHT22;17114;52.314;8.910;2022-09-02T02:48:50;11.90;99.90
30308;DHT22;17114;52.314;8.910;2022-09-02T02:51:17;11.90;99.90
30308;DHT22;17114;52.314;8.910;2022-09-02T02:53:44;11.90;99.90
30308;DHT22;17114;52.314;8.910;2022-09-02T02:56:11;11.80;99.90
30308;DHT22;17114;52.314;8.910;2022-09-02T02:58:37;11.80;99.90
30308;DHT22;17114;52.314;8.910;2022-09-02T03:01:04;11.80;99.90
30308;DHT22;17114;52.314;8.910;2022-09-02T03:03:31;11.70;99.90
30308;DHT22;17114;52.314;8.910;2022-09-02T03:05:58;11.70;99.90
30308;DHT22;17114;52.314;8.910;2022-09-02T03:08:25;11.60;99.90
30308;DHT22;17114;52.314;8.910;2022-09-02T03:10:54;11.60;99.90
30308;DHT22;17114;52.314;8.910;2022-09-02T03:13:22;11.60;99.90
30308;DHT22;17114;52.314;8.910;2022-09-02T03:15:52;11.60;99.90
30308;DHT22;17114;52.314;8.910;2022-09-02T03:18:19;11.60;99.90
30308;DHT22;17114;52.314;8.910;2022-09-02T03:20:46;11.60;99.90
30308;DHT22;17114;52.314;8.910;2022-09-02T03:23:13;11.60;99.90
30308;DHT22;17114;52.314;8.910;2022-09-02T03:25:43;11.60;99.90
30308;DHT22;17114;52.314;8.910;2022-09-02T03:28:11;11.60;99.90
30308;DHT22;17114;52.314;8.910;2022-09-02T03:30:39;11.60;99.90
30308;DHT22;17114;52.314;8.910;2022-09-02T03:33:06;11.50;99.90
30308;DHT22;17114;52.314;8.910;2022-09-02T03:35:42;11.50;99.90
30308;DHT22;17114;52.314;8.910;2022-09-02T03:38:10;11.50;99.90
30308;DHT22;17114;52.314;8.910;2022-09-02T03:40:40;11.40;99.90
30308;DHT22;17114;52.314;8.910;2022-09-02T03:43:07;11.40;99.90
30308;DHT22;17114;52.314;8.910;2022-09-02T03:45:34;11.40;99.90
30308;DHT22;17114;52.314;8.910;2022-09-02T03:48:02;11.40;99.90
30308;DHT22;17114;52.314;8.910;2022-09-02T03:50:31;11.40;99.90
30308;DHT22;17114;52.314;8.910;2022-09-02T03:52:59;11.40;99.90
30308;DHT22;17114;52.314;8.910;2022-09-02T03:55:26;11.30;99.90
30308;DHT22;17114;52.314;8.910;2022-09-02T03:57:54;11.30;99.90
30308;DHT22;17114;52.314;8.910;2022-09-02T04:00:24;11.30;99.90
30308;DHT22;17114;52.314;8.910;2022-09-02T04:02:51;11.30;99.90
30308;DHT22;17114;52.314;8.910;2022-09-02T04:05:21;11.30;99.90
30308;DHT22;17114;52.314;8.910;2022-09-02T04:07:49;11.30;99.90
30308;DHT22;17114;52.314;8.910;2022-09-02T04:10:20;11.20;99.90
30308;DHT22;17114;52.314;8.910;2022-09-02T04:12:48;11.30;99.90
30308;DHT22;17114;52.314;8.910;2022-09-02T04:15:15;11.20;99.90
30308;DHT22;17114;52.314;8.910;2022-09-02T04:21:06;11.10;99.90
30308;DHT22;17114;52.314;8.910;2022-09-02T04:23:45;11.10;99.90
30308;DHT22;17114;52.314;8.910;2022-09-02T04:26:14;11.10;99.90
30308;DHT22;17114;52.314;8.910;2022-09-02T04:28:42;11.10;99.90
30308;DHT22;17114;52.314;8.910;2022-09-02T04:31:11;11.00;99.90
30308;DHT22;17114;52.314;8.910;2022-09-02T04:33:39;11.00;99.90
30308;DHT22;17114;52.314;8.910;2022-09-02T04:36:07;11.00;99.90
30308;DHT22;17114;52.314;8.910;2022-09-02T04:38:38;11.00;99.90
30308;DHT22;17114;52.314;8.910;2022-09-02T04:41:09;11.10;99.90
30308;DHT22;17114;52.314;8.910;2022-09-02T04:43:36;11.00;99.90
30308;DHT22;17114;52.314;8.910;2022-09-02T04:46:11;11.00;99.90
30308;DHT22;17114;52.314;8.910;2022-09-02T04:48:39;11.00;99.90
30308;DHT22;17114;52.314;8.910;2022-09-02T04:51:11;11.00;99.90
30308;DHT22;17114;52.314;8.910;2022-09-02T04:53:39;11.00;99.90
30308;DHT22;17114;52.314;8.910;2022-09-02T04:56:09;11.00;99.90
30308;DHT22;17114;52.314;8.910;2022-09-02T04:58:37;11.10;99.90
30308;DHT22;17114;52.314;8.910;2022-09-02T05:01:08;11.10;99.90
30308;DHT22;17114;52.314;8.910;2022-09-02T05:03:36;11.10;99.90
30308;DHT22;17114;52.314;8.910;2022-09-02T05:06:06;11.20;99.90
30308;DHT22;17114;52.314;8.910;2022-09-02T05:08:33;11.20;99.90
30308;DHT22;17114;52.314;8.910;2022-09-02T05:11:30;11.20;99.90
30308;DHT22;17114;52.314;8.910;2022-09-02T05:14:01;11.30;99.90
30308;DHT22;17114;52.314;8.910;2022-09-02T05:16:31;11.30;99.90
30308;DHT22;17114;52.314;8.910;2022-09-02T05:18:59;11.40;99.90
30308;DHT22;17114;52.314;8.910;2022-09-02T05:21:26;11.40;99.90
30308;DHT22;17114;52.314;8.910;2022-09-02T05:23:53;11.40;99.90
30308;DHT22;17114;52.314;8.910;2022-09-02T05:26:20;11.50;99.90
30308;DHT22;17114;52.314;8.910;2022-09-02T05:28:48;11.50;99.90
30308;DHT22;17114;52.314;8.910;2022-09-02T05:31:18;11.60;99.90
30308;DHT22;17114;52.314;8.910;2022-09-02T05:33:46;11.70;99.90
30308;DHT22;17114;52.314;8.910;2022-09-02T05:36:17;11.70;99.90
30308;DHT22;17114;52.314;8.910;2022-09-02T05:38:45;11.80;99.90
30308;DHT22;17114;52.314;8.910;2022-09-02T05:41:18;11.90;99.90
30308;DHT22;17114;52.314;8.910;2022-09-02T05:43:49;12.10;99.90
30308;DHT22;17114;52.314;8.910;2022-09-02T05:46:19;12.40;99.90
30308;DHT22;17114;52.314;8.910;2022-09-02T05:48:48;12.90;99.90
30308;DHT22;17114;52.314;8.910;2022-09-02T05:54:21;14.10;99.90
30308;DHT22;17114;52.314;8.910;2022-09-02T05:56:53;14.50;99.90
30308;DHT22;17114;52.314;8.910;2022-09-02T05:59:21;14.70;99.90
30308;DHT22;17114;52.314;8.910;2022-09-02T06:01:49;14.90;99.90
30308;DHT22;17114;52.314;8.910;2022-09-02T06:04:16;15.20;99.90
30308;DHT22;17114;52.314;8.910;2022-09-02T06:06:43;15.30;99.90
30308;DHT22;17114;52.314;8.910;2022-09-02T06:09:12;15.30;99.90
30308;DHT22;17114;52.314;8.910;2022-09-02T06:11:41;15.40;99.90
30308;DHT22;17114;52.314;8.910;2022-09-02T06:14:16;15.30;99.90
30308;DHT22;17114;52.314;8.910;2022-09-02T06:16:43;15.10;99.90
30308;DHT22;17114;52.314;8.910;2022-09-02T06:19:11;15.00;99.90
30308;DHT22;17114;52.314;8.910;2022-09-02T06:21:44;14.90;99.90
30308;DHT22;17114;52.314;8.910;2022-09-02T06:24:12;14.90;99.90
30308;DHT22;17114;52.314;8.910;2022-09-02T06:26:40;15.00;99.90
30308;DHT22;17114;52.314;8.910;2022-09-02T06:29:08;15.40;99.90
30308;DHT22;17114;52.314;8.910;2022-09-02T06:31:35;15.90;99.90
30308;DHT22;17114;52.314;8.910;2022-09-02T06:34:02;16.50;99.90
30308;DHT22;17114;52.314;8.910;2022-09-02T06:36:30;17.10;99.90
30308;DHT22;17114;52.314;8.910;2022-09-02T06:38:59;17.70;99.90
30308;DHT22;17114;52.314;8.910;2022-09-02T06:41:28;18.20;99.90
30308;DHT22;17114;52.314;8.910;2022-09-02T06:43:57;18.70;99.90
30308;DHT22;17114;52.314;8.910;2022-09-02T06:46:28;19.10;99.90
30308;DHT22;17114;52.314;8.910;2022-09-02T06:48:55;19.60;99.90
30308;DHT22;17114;52.314;8.910;2022-09-02T06:51:25;20.00;99.90
30308;DHT22;17114;52.314;8.910;2022-09-02T06:53:52;20.40;99.90
30308;DHT22;17114;52.314;8.910;2022-09-02T06:56:19;20.90;99.90
30308;DHT22;17114;52.314;8.910;2022-09-02T06:58:46;21.30;99.90
30308;DHT22;17114;52.314;8.910;2022-09-02T07:01:21;21.70;99.90
30308;DHT22;17114;52.314;8.910;2022-09-02T07:03:49;21.90;99.90
30308;DHT22;17114;52.314;8.910;2022-09-02T07:06:40;22.30;99.90
30308;DHT22;17114;52.314;8.910;2022-09-02T07:09:09;22.50;99.90
30308;DHT22;17114;52.314;8.910;2022-09-02T07:11:37;22.50;99.90
30308;DHT22;17114;52.314;8.910;2022-09-02T07:14:05;22.80;99.90
30308;DHT22;17114;52.314;8.910;2022-09-02T07:16:35;23.30;99.90
30308;DHT22;17114;52.314;8.910;2022-09-02T07:19:03;23.80;99.90
30308;DHT22;17114;52.314;8.910;2022-09-02T07:21:35;24.10;99.90
30308;DHT22;17114;52.314;8.910;2022-09-02T07:24:02;24.30;99.90
30308;DHT22;17114;52.314;8.910;2022-09-02T07:26:29;24.40;99.90
30308;DHT22;17114;52.314;8.910;2022-09-02T07:28:56;24.40;99.90
30308;DHT22;17114;52.314;8.910;2022-09-02T07:31:24;24.90;99.90
30308;DHT22;17114;52.314;8.910;2022-09-02T07:33:53;25.30;99.90
30308;DHT22;17114;52.314;8.910;2022-09-02T07:36:25;25.10;99.90
30308;DHT22;17114;52.314;8.910;2022-09-02T07:38:53;25.00;99.90
30308;DHT22;17114;52.314;8.910;2022-09-02T07:41:21;25.10;99.90
30308;DHT22;17114;52.314;8.910;2022-09-02T07:43:48;25.30;99.90
30308;DHT22;17114;52.314;8.910;2022-09-02T07:46:18;25.40;99.90
30308;DHT22;17114;52.314;8.910;2022-09-02T07:48:45;25.50;99.90
30308;DHT22;17114;52.314;8.910;2022-09-02T07:51:17;25.90;99.90
30308;DHT22;17114;52.314;8.910;2022-09-02T07:53:44;26.20;99.90
30308;DHT22;17114;52.314;8.910;2022-09-02T07:56:12;26.30;99.90
30308;DHT22;17114;52.314;8.910;2022-09-02T07:58:40;26.30;99.90
30308;DHT22;17114;52.314;8.910;2022-09-02T08:01:08;26.20;99.90
30308;DHT22;17114;52.314;8.910;2022-09-02T08:03:37;26.40;99.90
30308;DHT22;17114;52.314;8.910;2022-09-02T08:06:05;26.70;99.90
30308;DHT22;17114;52.314;8.910;2022-09-02T08:08:33;26.80;99.80
30308;DHT22;17114;52.314;8.910;2022-09-02T08:11:00;26.90;99.90
30308;DHT22;17114;52.314;8.910;2022-09-02T08:13:33;27.20;99.10
30308;DHT22;17114;52.314;8.910;2022-09-02T08:16:01;27.20;99.50
30308;DHT22;17114;52.314;8.910;2022-09-02T08:18:29;27.20;98.10
30308;DHT22;17114;52.314;8.910;2022-09-02T08:20:56;27.20;98.10
30308;DHT22;17114;52.314;8.910;2022-09-02T08:23:24;27.20;98.80
30308;DHT22;17114;52.314;8.910;2022-09-02T08:26:03;27.20;97.20
30308;DHT22;17114;52.314;8.910;2022-09-02T08:28:31;27.10;97.40
30308;DHT22;17114;52.314;8.910;2022-09-02T08:30:59;27.00;98.60
30308;DHT22;17114;52.314;8.910;2022-09-02T08:33:29;27.30;97.90
30308;DHT22;17114;52.314;8.910;2022-09-02T08:36:04;27.50;98.10
30308;DHT22;17114;52.314;8.910;2022-09-02T08:38:31;27.60;96.40
30308;DHT22;17114;52.314;8.910;2022-09-02T08:40:58;27.60;96.60
30308;DHT22;17114;52.314;8.910;2022-09-02T08:43:37;27.50;96.50
30308;DHT22;17114;52.314;8.910;2022-09-02T08:46:08;27.70;95.80
30308;DHT22;17114;52.314;8.910;2022-09-02T08:48:41;27.70;95.30
30308;DHT22;17114;52.314;8.910;2022-09-02T08:51:51;27.60;95.50
30308;DHT22;17114;52.314;8.910;2022-09-02T08:54:28;27.90;94.50
30308;DHT22;17114;52.314;8.910;2022-09-02T08:56:56;27.90;94.50
30308;DHT22;17114;52.314;8.910;2022-09-02T08:59:25;28.00;94.70
30308;DHT22;17114;52.314;8.910;2022-09-02T09:18:37;28.00;92.40
30308;DHT22;17114;52.314;8.910;2022-09-02T09:21:08;28.00;91.40
30308;DHT22;17114;52.314;8.910;2022-09-02T09:23:38;28.30;91.30
30308;DHT22;17114;52.314;8.910;2022-09-02T09:26:19;28.50;90.30
30308;DHT22;17114;52.314;8.910;2022-09-02T09:28:49;28.10;90.90
30308;DHT22;17114;52.314;8.910;2022-09-02T09:31:18;28.10;91.00
30308;DHT22;17114;52.314;8.910;2022-09-02T09:34:10;28.40;90.80
30308;DHT22;17114;52.314;8.910;2022-09-02T09:39:28;28.50;89.60
30308;DHT22;17114;52.314;8.910;2022-09-02T09:41:59;28.40;90.00
30308;DHT22;17114;52.314;8.910;2022-09-02T09:44:43;28.60;90.90
30308;DHT22;17114;52.314;8.910;2022-09-02T09:47:27;29.00;90.70
30308;DHT22;17114;52.314;8.910;2022-09-02T09:50:15;29.10;88.50
30308;DHT22;17114;52.314;8.910;2022-09-02T09:52:42;29.10;84.10
30308;DHT22;17114;52.314;8.910;2022-09-02T09:57:40;29.40;81.10
30308;DHT22;17114;52.314;8.910;2022-09-02T10:00:27;29.40;79.10
30308;DHT22;17114;52.314;8.910;2022-09-02T10:02:59;28.90;80.90
30308;DHT22;17114;52.314;8.910;2022-09-02T10:05:31;28.60;79.60
30308;DHT22;17114;52.314;8.910;2022-09-02T10:08:04;28.50;80.50
30308;DHT22;17114;52.314;8.910;2022-09-02T10:13:24;28.40;79.90
30308;DHT22;17114;52.314;8.910;2022-09-02T10:19:01;28.40;79.60
30308;DHT22;17114;52.314;8.910;2022-09-02T10:21:52;28.20;78.20
30308;DHT22;17114;52.314;8.910;2022-09-02T10:27:37;28.10;77.00
30308;DHT22;17114;52.314;8.910;2022-09-02T10:30:26;27.80;76.50
30308;DHT22;17114;52.314;8.910;2022-09-02T10:35:41;28.00;76.10
30308;DHT22;17114;52.314;8.910;2022-09-02T10:40:43;27.60;78.50
30308;DHT22;17114;52.314;8.910;2022-09-02T10:43:29;27.60;77.00
30308;DHT22;17114;52.314;8.910;2022-09-02T10:46:00;27.10;77.30
30308;DHT22;17114;52.314;8.910;2022-09-02T10:49:05;27.10;78.50
30308;DHT22;17114;52.314;8.910;2022-09-02T11:02:46;27.70;76.70
30308;DHT22;17114;52.314;8.910;2022-09-02T11:05:27;27.50;76.40
30308;DHT22;17114;52.314;8.910;2022-09-02T11:08:05;27.40;77.40
30308;DHT22;17114;52.314;8.910;2022-09-02T11:11:04;27.40;76.20
30308;DHT22;17114;52.314;8.910;2022-09-02T11:13:59;27.80;77.00
30308;DHT22;17114;52.314;8.910;2022-09-02T11:16:40;27.90;75.10
30308;DHT22;17114;52.314;8.910;2022-09-02T11:22:22;28.10;77.00
30308;DHT22;17114;52.314;8.910;2022-09-02T11:25:13;28.40;75.40
30308;DHT22;17114;52.314;8.910;2022-09-02T11:30:19;28.10;74.50
30308;DHT22;17114;52.314;8.910;2022-09-02T11:33:10;28.30;73.10
30308;DHT22;17114;52.314;8.910;2022-09-02T11:35:38;28.40;72.40
30308;DHT22;17114;52.314;8.910;2022-09-02T11:38:34;28.50;73.60
30308;DHT22;17114;52.314;8.910;2022-09-02T11:47:06;27.80;72.10
30308;DHT22;17114;52.314;8.910;2022-09-02T11:57:53;27.40;74.10
30308;DHT22;17114;52.314;8.910;2022-09-02T12:01:03;27.50;73.70
30308;DHT22;17114;52.314;8.910;2022-09-02T12:03:32;27.50;73.00
30308;DHT22;17114;52.314;8.910;2022-09-02T12:06:20;27.50;74.60
30308;DHT22;17114;52.314;8.910;2022-09-02T12:11:35;26.80;73.90
30308;DHT22;17114;52.314;8.910;2022-09-02T12:14:05;27.00;75.00
30308;DHT22;17114;52.314;8.910;2022-09-02T12:16:42;27.00;73.30
30308;DHT22;17114;52.314;8.910;2022-09-02T12:24:52;26.40;76.10
30308;DHT22;17114;52.314;8.910;2022-09-02T12:27:29;26.90;75.00
30308;DHT22;17114;52.314;8.910;2022-09-02T12:29:57;26.90;74.00
30308;DHT22;17114;52.314;8.910;2022-09-02T12:35:28;26.40;74.00
30308;DHT22;17114;52.314;8.910;2022-09-02T12:38:14;26.20;74.80
30308;DHT22;17114;52.314;8.910;2022-09-02T12:43:27;26.10;75.10
30308;DHT22;17114;52.314;8.910;2022-09-02T12:46:12;26.30;74.70
30308;DHT22;17114;52.314;8.910;2022-09-02T12:54:43;27.20;73.20
30308;DHT22;17114;52.314;8.910;2022-09-02T12:57:14;27.20;74.40
30308;DHT22;17114;52.314;8.910;2022-09-02T12:59:44;27.30;71.60
30308;DHT22;17114;52.314;8.910;2022-09-02T13:10:54;27.30;69.70
30308;DHT22;17114;52.314;8.910;2022-09-02T13:34:47;26.00;73.70
30308;DHT22;17114;52.314;8.910;2022-09-02T13:37:35;25.80;73.20
30308;DHT22;17114;52.314;8.910;2022-09-02T13:40:24;25.80;73.00
30308;DHT22;17114;52.314;8.910;2022-09-02T13:42:53;26.00;75.00
30308;DHT22;17114;52.314;8.910;2022-09-02T13:45:25;25.60;72.30
30308;DHT22;17114;52.314;8.910;2022-09-02T13:47:57;25.50;71.80
30308;DHT22;17114;52.314;8.910;2022-09-02T13:50:27;25.30;71.60
30308;DHT22;17114;52.314;8.910;2022-09-02T13:53:05;25.10;73.10
30308;DHT22;17114;52.314;8.910;2022-09-02T13:55:55;25.10;73.90
30308;DHT22;17114;52.314;8.910;2022-09-02T14:01:08;25.20;74.20
30308;DHT22;17114;52.314;8.910;2022-09-02T14:03:47;25.30;74.60
30308;DHT22;17114;52.314;8.910;2022-09-02T14:06:18;25.10;73.50
30308;DHT22;17114;52.314;8.910;2022-09-02T14:08:55;25.00;73.60
30308;DHT22;17114;52.314;8.910;2022-09-02T14:11:24;24.90;74.20
30308;DHT22;17114;52.314;8.910;2022-09-02T14:13:52;24.80;74.40
30308;DHT22;17114;52.314;8.910;2022-09-02T14:16:28;24.70;73.90
30308;DHT22;17114;52.314;8.910;2022-09-02T14:21:31;24.70;76.30
30308;DHT22;17114;52.314;8.910;2022-09-02T14:23:58;24.70;75.70
30308;DHT22;17114;52.314;8.910;2022-09-02T14:26:37;24.70;75.10
30308;DHT22;17114;52.314;8.910;2022-09-02T14:29:09;24.80;74.10
30308;DHT22;17114;52.314;8.910;2022-09-02T14:31:37;24.90;75.50
30308;DHT22;17114;52.314;8.910;2022-09-02T14:36:57;24.70;73.80
30308;DHT22;17114;52.314;8.910;2022-09-02T14:39:24;24.60;74.80
30308;DHT22;17114;52.314;8.910;2022-09-02T14:41:54;24.60;75.00
30308;DHT22;17114;52.314;8.910;2022-09-02T14:44:34;24.50;75.00
30308;DHT22;17114;52.314;8.910;2022-09-02T14:47:06;24.50;75.30
30308;DHT22;17114;52.314;8.910;2022-09-02T14:49:51;24.50;76.00
30308;DHT22;17114;52.314;8.910;2022-09-02T14:52:25;24.60;76.50
30308;DHT22;17114;52.314;8.910;2022-09-02T14:54:55;24.70;77.00
30308;DHT22;17114;52.314;8.910;2022-09-02T14:57:34;24.90;75.90
30308;DHT22;17114;52.314;8.910;2022-09-02T15:02:55;24.70;74.70
30308;DHT22;17114;52.314;8.910;2022-09-02T15:05:22;24.60;75.90
30308;DHT22;17114;52.314;8.910;2022-09-02T15:07:50;24.60;77.20
30308;DHT22;17114;52.314;8.910;2022-09-02T15:10:17;24.60;75.40
30308;DHT22;17114;52.314;8.910;2022-09-02T15:12:50;24.50;76.20
30308;DHT22;17114;52.314;8.910;2022-09-02T15:15:18;24.30;76.10
30308;DHT22;17114;52.314;8.910;2022-09-02T15:17:47;24.20;77.20
30308;DHT22;17114;52.314;8.910;2022-09-02T15:20:14;24.10;77.40
30308;DHT22;17114;52.314;8.910;2022-09-02T15:22:42;24.00;77.30
30308;DHT22;17114;52.314;8.910;2022-09-02T15:25:09;23.90;77.90
30308;DHT22;17114;52.314;8.910;2022-09-02T15:27:36;24.00;78.20
30308;DHT22;17114;52.314;8.910;2022-09-02T15:30:04;24.10;79.30
30308;DHT22;17114;52.314;8.910;2022-09-02T15:32:32;24.20;77.70
30308;DHT22;17114;52.314;8.910;2022-09-02T15:34:59;24.10;77.30
30308;DHT22;17114;52.314;8.910;2022-09-02T15:37:26;24.10;76.60
30308;DHT22;17114;52.314;8.910;2022-09-02T15:39:53;24.10;76.80
30308;DHT22;17114;52.314;8.910;2022-09-02T15:42:20;24.00;76.90
30308;DHT22;17114;52.314;8.910;2022-09-02T15:44:47;24.00;76.30
30308;DHT22;17114;52.314;8.910;2022-09-02T15:47:14;24.10;77.30
30308;DHT22;17114;52.314;8.910;2022-09-02T15:49:41;24.20;76.50
30308;DHT22;17114;52.314;8.910;2022-09-02T15:52:08;24.20;77.00
30308;DHT22;17114;52.314;8.910;2022-09-02T15:54:35;24.30;76.20
30308;DHT22;17114;52.314;8.910;2022-09-02T15:57:01;24.30;76.60
30308;DHT22;17114;52.314;8.910;2022-09-02T15:59:28;24.30;77.40
30308;DHT22;17114;52.314;8.910;2022-09-02T16:01:56;24.20;76.90
30308;DHT22;17114;52.314;8.910;2022-09-02T16:04:24;24.20;77.20
30308;DHT22;17114;52.314;8.910;2022-09-02T16:06:53;24.20;76.50
30308;DHT22;17114;52.314;8.910;2022-09-02T16:09:20;24.20;75.90
30308;DHT22;17114;52.314;8.910;2022-09-02T16:11:49;24.20;75.60
30308;DHT22;17114;52.314;8.910;2022-09-02T16:14:18;24.10;76.10
30308;DHT22;17114;52.314;8.910;2022-09-02T16:16:47;24.10;76.80
30308;DHT22;17114;52.314;8.910;2022-09-02T16:19:17;24.00;76.10
30308;DHT22;17114;52.314;8.910;2022-09-02T16:21:44;23.80;76.60
30308;DHT22;17114;52.314;8.910;2022-09-02T16:24:11;23.70;77.70
30308;DHT22;17114;52.314;8.910;2022-09-02T16:26:39;23.70;77.60
30308;DHT22;17114;52.314;8.910;2022-09-02T16:29:09;23.60;77.40
30308;DHT22;17114;52.314;8.910;2022-09-02T16:31:38;23.60;77.80
30308;DHT22;17114;52.314;8.910;2022-09-02T16:34:08;23.60;78.40
30308;DHT22;17114;52.314;8.910;2022-09-02T16:36:40;23.60;77.70
30308;DHT22;17114;52.314;8.910;2022-09-02T16:39:08;23.50;77.90
30308;DHT22;17114;52.314;8.910;2022-09-02T16:41:42;23.50;78.50
30308;DHT22;17114;52.314;8.910;2022-09-02T16:44:12;23.40;77.80
30308;DHT22;17114;52.314;8.910;2022-09-02T16:46:42;23.40;77.90
30308;DHT22;17114;52.314;8.910;2022-09-02T16:49:11;23.30;77.50
30308;DHT22;17114;52.314;8.910;2022-09-02T16:51:39;23.20;77.90
30308;DHT22;17114;52.314;8.910;2022-09-02T16:54:08;23.00;77.80
30308;DHT22;17114;52.314;8.910;2022-09-02T16:56:43;22.80;78.60
30308;DHT22;17114;52.314;8.910;2022-09-02T16:59:11;22.70;78.80
30308;DHT22;17114;52.314;8.910;2022-09-02T17:01:39;22.60;79.10
30308;DHT22;17114;52.314;8.910;2022-09-02T17:04:07;22.50;79.60
30308;DHT22;17114;52.314;8.910;2022-09-02T17:06:34;22.40;80.30
30308;DHT22;17114;52.314;8.910;2022-09-02T17:09:08;22.30;80.20
30308;DHT22;17114;52.314;8.910;2022-09-02T17:11:36;22.30;80.60
30308;DHT22;17114;52.314;8.910;2022-09-02T17:14:07;22.20;81.20
30308;DHT22;17114;52.314;8.910;2022-09-02T17:16:37;22.20;81.40
30308;DHT22;17114;52.314;8.910;2022-09-02T17:19:05;22.20;81.30
30308;DHT22;17114;52.314;8.910;2022-09-02T17:21:38;22.20;81.00
30308;DHT22;17114;52.314;8.910;2022-09-02T17:24:08;22.20;80.90
30308;DHT22;17114;52.314;8.910;2022-09-02T17:26:37;22.20;80.80
30308;DHT22;17114;52.314;8.910;2022-09-02T17:29:10;22.10;79.90
30308;DHT22;17114;52.314;8.910;2022-09-02T17:31:58;22.20;80.00
30308;DHT22;17114;52.314;8.910;2022-09-02T17:34:25;22.10;80.20
30308;DHT22;17114;52.314;8.910;2022-09-02T17:36:52;22.10;80.20
30308;DHT22;17114;52.314;8.910;2022-09-02T17:39:19;22.00;80.50
30308;DHT22;17114;52.314;8.910;2022-09-02T17:41:47;22.00;80.50
30308;DHT22;17114;52.314;8.910;2022-09-02T17:44:31;21.90;80.80
30308;DHT22;17114;52.314;8.910;2022-09-02T17:47:14;21.90;81.20
30308;DHT22;17114;52.314;8.910;2022-09-02T17:49:41;21.90;81.40
30308;DHT22;17114;52.314;8.910;2022-09-02T17:52:12;21.80;81.20
30308;DHT22;17114;52.314;8.910;2022-09-02T17:54:40;21.70;81.50
30308;DHT22;17114;52.314;8.910;2022-09-02T18:02:57;21.60;81.80
30308;DHT22;17114;52.314;8.910;2022-09-02T18:06:14;21.50;81.90
30308;DHT22;17114;52.314;8.910;2022-09-02T18:08:58;21.40;82.10
30308;DHT22;17114;52.314;8.910;2022-09-02T18:11:18;21.30;82.50
30308;DHT22;17114;52.314;8.910;2022-09-02T18:23:01;20.90;83.70
30308;DHT22;17114;52.314;8.910;2022-09-02T18:26:01;20.70;84.00